Time;durP1;ratioP1;P1;durP2;ratioP2;P2;SDS_P1;SDS_P2;PMS_P1;PMS_P2;Temp;Humidity;BMP_temperature;BMP_pressure;BME280_temperature;BME280_humidity;BME280_pressure;Samples;Min_cycle;Max_cycle;Signal;HPM_P1;HPM_P2
2021/08/20 00:03:28;;;;;;;3.13;2.83;;;;;;;20.30;67.96;100123.16;10327226;28;20104;-59
2021/08/20 00:08:30;;;;;;;3.38;2.97;;;;;;;20.31;67.79;100120.25;10326183;28;20511;-60
2021/08/20 00:13:31;;;;;;;3.42;3.13;;;;;;;20.21;67.61;100108.09;10320168;28;20128;-58
2021/08/20 00:18:34;;;;;;;4.28;3.10;;;;;;;20.19;67.99;100129.03;10326791;28;20049;-61
2021/08/20 00:23:35;;;;;;;4.90;2.70;;;;;;;20.21;67.95;100118.88;10322630;28;20119;-58
2021/08/20 00:28:37;;;;;;;3.83;3.53;;;;;;;20.24;67.99;100130.16;10326113;28;20073;-60
2021/08/20 00:33:38;;;;;;;3.75;3.45;;;;;;;20.21;67.71;100129.69;10335638;28;20203;-59
2021/08/20 00:38:40;;;;;;;3.80;3.40;;;;;;;20.23;67.84;100122.22;10334663;28;20053;-59
2021/08/20 00:43:45;;;;;;;3.53;3.22;;;;;;;20.19;68.29;100116.38;10333249;28;20100;-58
2021/08/20 00:48:46;;;;;;;4.00;3.08;;;;;;;20.14;68.04;100111.50;10325916;28;20408;-58
2021/08/20 00:53:48;;;;;;;3.10;2.75;;;;;;;20.12;68.87;100105.47;10328734;28;20104;-61
2021/08/20 00:58:51;;;;;;;4.88;3.00;;;;;;;20.06;68.83;100114.34;10332096;28;20046;-59
2021/08/20 01:03:52;;;;;;;4.55;2.60;;;;;;;20.06;68.94;100117.03;10333162;28;20934;-59
2021/08/20 01:08:54;;;;;;;3.08;2.85;;;;;;;20.03;69.43;100113.91;10340198;28;20135;-58
2021/08/20 01:13:55;;;;;;;5.47;3.60;;;;;;;20.01;69.17;100116.78;10331040;28;20103;-60
2021/08/20 01:18:57;;;;;;;3.58;3.28;;;;;;;20.02;69.19;100110.34;10333908;28;20077;-58
2021/08/20 01:24:01;;;;;;;3.40;3.05;;;;;;;19.98;69.21;100114.44;10331121;28;20579;-60
2021/08/20 01:29:02;;;;;;;3.85;3.20;;;;;;;19.94;69.23;100105.06;10332682;28;20141;-60
2021/08/20 01:34:04;;;;;;;4.00;3.60;;;;;;;19.85;69.96;100103.47;10333678;28;20111;-58
2021/08/20 01:39:06;;;;;;;3.60;3.30;;;;;;;19.85;69.75;100106.19;10335014;28;20468;-59
2021/08/20 01:44:08;;;;;;;4.97;2.90;;;;;;;19.87;69.69;100106.81;10331457;28;20127;-59
2021/08/20 01:49:10;;;;;;;3.42;2.70;;;;;;;19.85;70.28;100108.88;10328922;28;20693;-60
2021/08/20 01:54:11;;;;;;;3.70;3.17;;;;;;;19.88;69.90;100109.34;10337733;28;20068;-60
2021/08/20 01:59:13;;;;;;;3.85;3.42;;;;;;;19.88;70.01;100108.50;10328078;28;20682;-61
2021/08/20 02:04:14;;;;;;;3.55;3.25;;;;;;;19.87;70.29;100106.81;10328622;28;20096;-58
2021/08/20 02:09:15;;;;;;;4.03;3.50;;;;;;;19.87;69.89;100110.34;10329923;28;20042;-59
2021/08/20 02:14:18;;;;;;;3.40;3.10;;;;;;;19.87;69.74;100106.81;10320938;28;20062;-59
2021/08/20 02:19:19;;;;;;;2.92;2.63;;;;;;;19.88;69.79;100111.22;10322231;28;20461;-60
2021/08/20 02:24:20;;;;;;;2.83;2.63;;;;;;;19.88;69.21;100105.81;10328405;28;20120;-61
2021/08/20 02:29:22;;;;;;;4.45;3.05;;;;;;;19.85;69.46;100108.88;10328256;28;20140;-60
2021/08/20 02:34:23;;;;;;;2.97;2.72;;;;;;;19.76;69.03;100103.53;10329941;28;20046;-60
2021/08/20 02:39:24;;;;;;;3.45;2.70;;;;;;;19.86;69.15;100108.69;10327731;28;20492;-59
2021/08/20 02:44:26;;;;;;;3.30;3.00;;;;;;;19.83;68.75;100100.13;10327587;28;20073;-60
2021/08/20 02:49:28;;;;;;;3.03;2.70;;;;;;;19.81;69.01;100111.09;10326761;28;20156;-59
2021/08/20 02:54:29;;;;;;;3.38;2.40;;;;;;;19.73;69.67;100103.91;10322772;28;20078;-62
2021/08/20 02:59:31;;;;;;;3.05;2.78;;;;;;;19.61;69.33;100103.53;10328054;28;20132;-61
2021/08/20 03:04:32;;;;;;;3.10;2.63;;;;;;;19.51;69.74;100104.84;10335232;28;20104;-58
2021/08/20 03:09:34;;;;;;;3.80;3.38;;;;;;;19.47;69.58;100106.22;10333305;28;20126;-59
2021/08/20 03:14:35;;;;;;;3.33;2.72;;;;;;;19.46;70.11;100107.28;10323631;28;20112;-59
2021/08/20 03:19:37;;;;;;;3.38;2.42;;;;;;;19.43;70.24;100101.22;10326427;28;20085;-60
2021/08/20 03:24:38;;;;;;;3.53;2.90;;;;;;;19.50;70.15;100103.16;10330497;28;20358;-61
2021/08/20 03:29:40;;;;;;;3.70;3.40;;;;;;;19.48;70.56;100099.81;10327224;28;20046;-59
2021/08/20 03:34:41;;;;;;;4.90;3.55;;;;;;;19.51;70.81;100089.47;10318586;28;20061;-60
2021/08/20 03:39:42;;;;;;;5.25;4.25;;;;;;;19.36;71.89;100081.38;10332422;28;20053;-61
2021/08/20 03:44:44;;;;;;;4.10;3.70;;;;;;;19.36;72.25;100094.88;10331522;28;20564;-60
2021/08/20 03:49:45;;;;;;;5.50;3.60;;;;;;;19.24;72.57;100081.00;10322281;28;20038;-60
2021/08/20 03:54:47;;;;;;;5.95;3.67;;;;;;;19.23;73.07;100098.22;10348742;28;20080;-59
2021/08/20 03:59:48;;;;;;;3.83;3.40;;;;;;;19.17;73.59;100098.09;10329027;28;20163;-59
2021/08/20 04:04:49;;;;;;;3.90;3.60;;;;;;;19.14;73.41;100106.56;10335464;28;20419;-59
2021/08/20 04:09:51;;;;;;;4.30;3.88;;;;;;;19.07;73.27;100110.00;10341076;28;20108;-59
2021/08/20 04:14:52;;;;;;;4.20;3.80;;;;;;;18.95;73.42;100103.38;10336686;28;20410;-61
2021/08/20 04:19:54;;;;;;;4.30;3.90;;;;;;;18.89;73.25;100109.50;10331868;28;20112;-58
2021/08/20 04:24:55;;;;;;;4.07;3.53;;;;;;;18.77;73.65;100133.31;10340759;28;20045;-60
2021/08/20 04:29:57;;;;;;;4.93;4.43;;;;;;;18.72;73.44;100141.94;10330361;28;20133;-58
2021/08/20 04:34:58;;;;;;;4.45;3.97;;;;;;;18.74;73.47;100139.06;10333014;28;20627;-60
2021/08/20 04:40:00;;;;;;;3.92;3.20;;;;;;;18.63;73.47;100145.72;10342577;28;20041;-60
2021/08/20 04:45:02;;;;;;;3.80;3.42;;;;;;;18.61;73.04;100149.59;10320317;28;20128;-60
2021/08/20 04:50:04;;;;;;;5.38;4.05;;;;;;;18.66;73.33;100149.88;10310952;28;20558;-58
2021/08/20 04:55:06;;;;;;;5.20;4.20;;;;;;;18.61;72.77;100155.00;10318090;28;20490;-60
2021/08/20 05:00:08;;;;;;;3.53;3.22;;;;;;;18.62;73.62;100157.50;10315328;28;20135;-61
2021/08/20 05:05:11;;;;;;;4.72;3.78;;;;;;;18.58;73.32;100164.25;10315092;28;20049;-61
2021/08/20 05:10:12;;;;;;;4.53;3.70;;;;;;;18.64;72.43;100171.63;10317559;28;21188;-59
2021/08/20 05:15:15;;;;;;;3.60;3.30;;;;;;;18.67;72.28;100171.28;10330849;28;20111;-60
2021/08/20 05:20:16;;;;;;;5.78;3.80;;;;;;;18.69;71.58;100188.13;10324433;28;20113;-60
2021/08/20 05:25:19;;;;;;;3.72;3.28;;;;;;;18.82;71.87;100178.59;10321367;28;20770;-61
2021/08/20 05:30:20;;;;;;;4.10;3.70;;;;;;;18.85;71.29;100176.41;10319492;28;20081;-59
2021/08/20 05:35:22;;;;;;;4.10;3.55;;;;;;;18.90;71.26;100187.53;10320202;28;20111;-60
2021/08/20 05:40:27;;;;;;;3.97;3.58;;;;;;;18.88;70.38;100191.41;10317648;28;20066;-62
2021/08/20 05:45:36;;;;;;;4.72;3.40;;;;;;;18.87;69.95;100187.03;10317565;28;20046;-61
2021/08/20 05:50:38;;;;;;;3.75;3.33;;;;;;;18.96;69.07;100196.75;10321615;28;20044;-59
2021/08/20 05:55:39;;;;;;;4.18;3.78;;;;;;;18.94;69.06;100209.56;10316353;28;20077;-59
2021/08/20 06:00:41;;;;;;;4.68;2.88;;;;;;;18.87;68.74;100206.75;10332320;28;20074;-59
2021/08/20 06:05:42;;;;;;;4.35;3.83;;;;;;;19.04;68.66;100199.38;10319247;28;20046;-57
2021/08/20 06:10:45;;;;;;;3.85;3.55;;;;;;;19.00;67.61;100208.84;10312348;28;20096;-61
2021/08/20 06:15:47;;;;;;;3.03;2.73;;;;;;;18.99;66.75;100201.78;10305248;28;20046;-60
2021/08/20 06:20:48;;;;;;;3.95;3.55;;;;;;;19.04;65.31;100210.16;10304341;28;20372;-61
2021/08/20 06:25:50;;;;;;;3.95;2.60;;;;;;;19.21;64.73;100210.03;10311290;28;20483;-61
2021/08/20 06:30:51;;;;;;;4.38;3.00;;;;;;;19.22;64.00;100220.66;10314464;28;20050;-61
2021/08/20 06:35:53;;;;;;;2.72;2.53;;;;;;;19.36;63.22;100216.31;10333601;28;20127;-57
2021/08/20 06:40:54;;;;;;;3.30;2.45;;;;;;;19.52;62.55;100206.41;10316898;28;20089;-60
2021/08/20 06:45:55;;;;;;;3.47;3.05;;;;;;;19.54;61.91;100220.56;10312898;28;20141;-60
2021/08/20 06:50:58;;;;;;;3.35;2.88;;;;;;;19.37;62.14;100231.50;10311828;28;20527;-59
2021/08/20 06:55:59;;;;;;;2.67;2.00;;;;;;;19.46;62.49;100223.34;10315598;28;20127;-60
2021/08/20 07:01:01;;;;;;;2.42;2.22;;;;;;;19.46;61.78;100215.25;10311858;28;20078;-59
2021/08/20 07:06:03;;;;;;;3.28;2.38;;;;;;;19.58;61.26;100220.00;10317956;28;21133;-64
2021/08/20 07:11:04;;;;;;;3.70;1.85;;;;;;;19.70;61.03;100222.28;10309962;28;20060;-63
2021/08/20 07:16:05;;;;;;;3.28;2.50;;;;;;;19.72;60.32;100221.03;10305814;28;20065;-61
2021/08/20 07:21:07;;;;;;;2.60;2.40;;;;;;;19.85;59.44;100222.31;10308261;28;20657;-60
2021/08/20 07:26:09;;;;;;;3.08;2.20;;;;;;;20.04;60.39;100229.88;10308399;28;20167;-59
2021/08/20 07:31:11;;;;;;;3.42;2.30;;;;;;;20.29;59.26;100221.47;10309885;28;20078;-60
2021/08/20 07:36:12;;;;;;;2.35;1.80;;;;;;;20.33;59.24;100225.47;10308567;28;20075;-60
2021/08/20 07:41:14;;;;;;;2.20;2.00;;;;;;;20.65;59.12;100235.03;10310761;28;20584;-60
2021/08/20 07:46:15;;;;;;;2.70;1.67;;;;;;;21.01;58.26;100249.59;10312797;28;20133;-58
2021/08/20 07:51:17;;;;;;;2.20;1.58;;;;;;;21.49;56.84;100247.13;10310015;28;20060;-60
2021/08/20 07:56:18;;;;;;;3.10;1.58;;;;;;;21.79;55.32;100244.25;10300907;28;20974;-60
2021/08/20 08:01:20;;;;;;;3.85;2.10;;;;;;;21.70;54.99;100243.56;10312692;28;20157;-62
2021/08/20 08:06:23;;;;;;;3.63;1.67;;;;;;;21.56;54.71;100249.09;10307476;28;20058;-59
2021/08/20 08:11:30;;;;;;;2.15;1.95;;;;;;;21.26;55.63;100241.06;10313369;28;20090;-56
2021/08/20 08:16:34;;;;;;;2.53;1.58;;;;;;;21.16;56.11;100247.66;10314062;28;20045;-57
2021/08/20 08:21:37;;;;;;;3.03;1.45;;;;;;;21.36;55.44;100252.41;10326242;28;20477;-59
2021/08/20 08:26:38;;;;;;;1.98;1.85;;;;;;;21.61;53.94;100260.19;10308780;28;20048;-57
2021/08/20 08:31:40;;;;;;;3.13;2.28;;;;;;;21.99;54.32;100262.53;10309067;28;20396;-57
2021/08/20 08:36:42;;;;;;;2.60;1.30;;;;;;;22.32;52.42;100272.78;10308763;28;20049;-57
2021/08/20 08:41:43;;;;;;;3.42;1.83;;;;;;;22.12;51.95;100272.63;10310668;28;20196;-56
2021/08/20 08:46:47;;;;;;;2.35;1.70;;;;;;;22.50;51.10;100270.34;10316616;28;20081;-57
2021/08/20 08:51:49;;;;;;;1.73;1.50;;;;;;;22.88;50.00;100278.03;10314841;28;20046;-56
2021/08/20 08:56:50;;;;;;;3.22;2.08;;;;;;;22.86;50.43;100269.25;10321713;28;20459;-57
2021/08/20 09:01:52;;;;;;;4.28;1.88;;;;;;;23.39;49.76;100276.72;10291846;28;20053;-58
2021/08/20 09:06:55;;;;;;;2.50;1.80;;;;;;;23.57;48.98;100278.81;10316109;28;20046;-59
2021/08/20 09:12:00;;;;;;;1.80;1.20;;;;;;;23.32;49.93;100267.72;10316766;28;20136;-57
2021/08/20 09:17:03;;;;;;;3.45;1.63;;;;;;;23.90;48.13;100267.13;10314191;28;20575;-57
2021/08/20 09:22:10;;;;;;;2.22;1.30;;;;;;;24.35;47.92;100272.69;10316066;28;20912;-60
2021/08/20 09:27:17;;;;;;;3.72;2.20;;;;;;;24.50;45.92;100271.56;10314873;28;20123;-57
2021/08/20 09:32:21;;;;;;;1.92;1.52;;;;;;;24.14;46.29;100275.63;10329455;28;20094;-58
2021/08/20 09:37:23;;;;;;;2.45;1.50;;;;;;;23.87;48.16;100269.41;10319502;28;20069;-58
2021/08/20 09:42:24;;;;;;;1.63;1.50;;;;;;;23.97;47.14;100269.81;10319063;28;20124;-61
2021/08/20 09:47:25;;;;;;;3.55;2.10;;;;;;;24.60;45.65;100280.13;10317403;28;20131;-58
2021/08/20 09:52:30;;;;;;;1.90;1.70;;;;;;;24.57;46.16;100277.81;10312158;28;20133;-59
2021/08/20 09:57:35;;;;;;;2.40;1.63;;;;;;;24.92;44.99;100263.91;10315181;28;20136;-62
2021/08/20 10:02:40;;;;;;;1.83;1.13;;;;;;;25.79;43.53;100265.16;10311099;28;20129;-59
2021/08/20 10:07:41;;;;;;;2.30;1.98;;;;;;;26.27;41.18;100268.06;10313397;28;20056;-59
2021/08/20 10:12:43;;;;;;;4.15;1.90;;;;;;;26.63;39.74;100268.25;10315806;28;23926;-60
2021/08/20 10:17:45;;;;;;;1.77;1.38;;;;;;;26.54;39.89;100262.31;10315739;28;20137;-61
2021/08/20 10:22:47;;;;;;;2.75;1.30;;;;;;;27.48;37.60;100256.38;10326154;28;20818;-58
2021/08/20 10:27:52;;;;;;;2.20;1.70;;;;;;;30.10;34.55;100257.13;10315435;28;20154;-59
2021/08/20 10:33:04;;;;;;;1.63;1.30;;;;;;;34.09;28.81;100252.63;10314142;28;20072;-60
2021/08/20 10:38:26;;;;;;;1.92;1.60;;;;;;;34.83;25.52;100241.81;10312622;28;20141;-61
2021/08/20 10:43:49;;;;;;;1.65;1.45;;;;;;;32.20;29.07;100254.81;10315696;28;20554;-60
2021/08/20 10:49:23;;;;;;;2.22;1.33;;;;;;;30.70;31.75;100252.69;10314811;28;20128;-62
2021/08/20 10:54:30;;;;;;;3.28;1.88;;;;;;;31.58;31.10;100246.16;10321566;28;20503;-61
2021/08/20 10:59:38;;;;;;;3.00;1.30;;;;;;;34.93;26.47;100257.53;10315619;28;20070;-59
2021/08/20 11:05:03;;;;;;;2.90;1.60;;;;;;;34.02;26.40;100250.16;10312171;28;20089;-62
2021/08/20 11:10:08;;;;;;;2.25;1.38;;;;;;;31.29;31.39;100240.94;10313502;28;20127;-59
2021/08/20 11:15:25;;;;;;;1.88;1.60;;;;;;;28.39;35.29;100241.50;10316045;28;20539;-61
2021/08/20 11:20:42;;;;;;;1.80;1.55;;;;;;;28.36;36.66;100236.53;10310728;28;20103;-60
2021/08/20 11:25:58;;;;;;;1.65;1.50;;;;;;;29.07;34.84;100245.31;10314683;28;20490;-60
2021/08/20 11:31:09;;;;;;;1.48;1.38;;;;;;;34.76;26.37;100247.66;10317585;28;20077;-59
2021/08/20 11:36:22;;;;;;;2.40;1.73;;;;;;;32.82;27.88;100241.28;10314142;28;20510;-59
2021/08/20 11:41:27;;;;;;;2.75;1.60;;;;;;;31.83;29.97;100244.69;10311229;28;20175;-62
2021/08/20 11:46:34;;;;;;;2.65;1.58;;;;;;;31.52;30.30;100237.00;10309310;28;20084;-61
2021/08/20 11:51:42;;;;;;;1.60;1.13;;;;;;;33.50;27.22;100224.56;10311803;28;21777;-60
2021/08/20 11:56:52;;;;;;;3.00;1.33;;;;;;;32.28;28.75;100229.53;10326978;28;20081;-60
2021/08/20 12:01:55;;;;;;;2.28;1.23;;;;;;;30.85;31.35;100225.41;10308573;28;20157;-61
2021/08/20 12:07:05;;;;;;;1.70;1.60;;;;;;;28.69;34.16;100221.31;10311424;28;20046;-60
2021/08/20 12:12:11;;;;;;;;;;;;;;;28.02;35.75;100233.59;10310663;28;20127;-59
2021/08/20 12:17:31;;;;;;;1.48;1.35;;;;;;;27.30;37.53;100231.84;10323320;28;19941;-58
2021/08/20 12:22:39;;;;;;;1.60;1.35;;;;;;;28.17;36.93;100231.19;10317317;28;20069;-60
2021/08/20 12:27:42;;;;;;;1.75;1.55;;;;;;;27.95;36.71;100220.00;10333684;28;20149;-59
2021/08/20 12:32:54;;;;;;;2.33;1.60;;;;;;;27.77;37.26;100237.38;10317878;28;20699;-60
2021/08/20 12:38:07;;;;;;;2.28;1.52;;;;;;;27.72;37.47;100241.91;10322128;28;20057;-61
2021/08/20 12:43:30;;;;;;;2.10;1.30;;;;;;;26.87;38.27;100235.66;10317822;28;20066;-60
2021/08/20 12:48:32;;;;;;;1.75;1.48;;;;;;;27.14;38.53;100231.47;10316883;28;20054;-59
2021/08/20 12:53:36;;;;;;;2.58;2.35;;;;;;;26.90;38.95;100235.19;10317971;28;20132;-59
2021/08/20 12:58:37;;;;;;;3.60;1.83;;;;;;;26.28;40.11;100236.16;10320469;28;20069;-59
2021/08/20 13:03:40;;;;;;;4.35;3.42;;;;;;;26.77;39.83;100239.78;10336728;28;20073;-59
2021/08/20 13:08:41;;;;;;;1.70;1.60;;;;;;;26.74;39.30;100242.97;10323214;28;20475;-59
2021/08/20 13:13:43;;;;;;;2.10;1.90;;;;;;;26.72;39.94;100238.78;10328822;28;20096;-58
2021/08/20 13:18:45;;;;;;;1.63;1.30;;;;;;;27.02;38.53;100236.03;10323861;28;20507;-60
2021/08/20 13:23:47;;;;;;;2.47;1.37;;;;;;;26.83;38.83;100242.63;10318145;28;20081;-61
2021/08/20 13:28:49;;;;;;;1.63;1.50;;;;;;;27.07;38.35;100235.34;10317690;28;20133;-61
2021/08/20 13:33:50;;;;;;;2.75;1.42;;;;;;;27.16;36.82;100236.69;10319233;28;20504;-59
2021/08/20 13:38:52;;;;;;;1.70;1.08;;;;;;;27.41;37.48;100233.78;10320966;28;20735;-61
2021/08/20 13:43:53;;;;;;;2.92;1.35;;;;;;;27.66;36.56;100224.56;10318622;28;20452;-58
2021/08/20 13:48:54;;;;;;;2.45;1.02;;;;;;;27.74;37.24;100228.81;10331786;28;20528;-61
2021/08/20 13:53:56;;;;;;;1.38;1.10;;;;;;;27.41;37.31;100227.50;10322961;28;20135;-61
2021/08/20 13:58:58;;;;;;;1.17;1.08;;;;;;;26.96;37.99;100226.06;10316396;28;20061;-60
2021/08/20 14:04:00;;;;;;;2.65;1.13;;;;;;;27.06;37.34;100231.78;10316859;28;20117;-60
2021/08/20 14:09:01;;;;;;;1.90;1.13;;;;;;;27.26;37.60;100222.44;10315997;28;20209;-60
2021/08/20 14:14:03;;;;;;;1.90;0.70;;;;;;;27.36;36.97;100214.53;10309854;28;20137;-61
2021/08/20 14:19:04;;;;;;;2.83;0.95;;;;;;;27.10;37.23;100219.34;10319641;28;20137;-61
2021/08/20 14:24:05;;;;;;;1.33;0.75;;;;;;;27.33;36.92;100209.56;10318585;28;20125;-60
2021/08/20 14:29:07;;;;;;;1.13;0.80;;;;;;;27.59;36.83;100207.44;10318042;28;20060;-62
2021/08/20 14:34:09;;;;;;;1.77;1.00;;;;;;;27.16;37.58;100212.94;10320191;28;20581;-60
2021/08/20 14:39:10;;;;;;;1.77;0.75;;;;;;;27.10;38.27;100219.34;10316092;28;20132;-58
2021/08/20 14:44:13;;;;;;;1.30;1.00;;;;;;;26.90;37.71;100210.59;10316328;28;20050;-62
2021/08/20 14:49:15;;;;;;;1.20;0.80;;;;;;;26.61;38.89;100213.06;10302136;28;20180;-61
2021/08/20 14:54:16;;;;;;;1.38;0.88;;;;;;;26.76;39.12;100221.72;10313235;28;20054;-61
2021/08/20 14:59:18;;;;;;;4.60;1.20;;;;;;;26.76;39.10;100213.53;10331957;28;20077;-61
2021/08/20 15:04:19;;;;;;;1.60;1.00;;;;;;;26.83;39.12;100213.44;10313916;28;20135;-62
2021/08/20 15:09:20;;;;;;;1.88;0.98;;;;;;;26.60;39.12;100223.19;10313674;28;20038;-62
2021/08/20 15:14:22;;;;;;;1.17;0.93;;;;;;;26.39;38.86;100226.38;10315923;28;20088;-62
2021/08/20 15:19:32;;;;;;;1.45;0.73;;;;;;;26.03;39.19;100223.44;10314347;28;20061;-60
2021/08/20 15:24:34;;;;;;;1.20;0.65;;;;;;;26.33;38.71;100219.91;10301849;28;20193;-59
2021/08/20 15:29:35;;;;;;;0.87;0.60;;;;;;;26.33;39.13;100211.75;10306089;28;20046;-61
2021/08/20 15:34:37;;;;;;;1.55;0.73;;;;;;;25.98;40.08;100220.50;10314696;28;20042;-60
2021/08/20 15:39:39;;;;;;;1.33;0.90;;;;;;;26.22;39.91;100215.25;10313752;28;20070;-61
2021/08/20 15:44:44;;;;;;;0.80;0.55;;;;;;;26.52;38.87;100220.75;10306445;28;20051;-58
2021/08/20 15:49:55;;;;;;;1.58;0.80;;;;;;;26.31;39.52;100218.50;10312614;28;20069;-61
2021/08/20 15:54:56;;;;;;;1.27;0.80;;;;;;;26.42;39.31;100207.66;10313816;28;20100;-62
2021/08/20 15:59:58;;;;;;;1.98;1.05;;;;;;;26.62;39.41;100217.47;10327746;28;20128;-60
2021/08/20 16:04:59;;;;;;;2.35;1.60;;;;;;;26.69;39.39;100214.69;10318180;28;20109;-62
2021/08/20 16:10:03;;;;;;;1.60;1.05;;;;;;;26.38;39.94;100222.00;10317653;28;20137;-60
2021/08/20 16:15:06;;;;;;;1.23;1.02;;;;;;;26.33;39.82;100225.38;10320405;28;20041;-59
2021/08/20 16:20:09;;;;;;;1.00;0.73;;;;;;;26.23;40.20;100222.38;10320129;28;20061;-62
2021/08/20 16:25:12;;;;;;;1.50;0.80;;;;;;;26.19;40.38;100232.91;10318763;28;20088;-61
2021/08/20 16:30:13;;;;;;;2.15;0.88;;;;;;;26.23;40.49;100230.56;10318616;28;20807;-60
2021/08/20 16:35:15;;;;;;;1.20;1.00;;;;;;;26.02;41.14;100227.22;10319374;28;20112;-58
2021/08/20 16:40:17;;;;;;;3.15;0.82;;;;;;;25.82;41.37;100237.44;10320579;28;20101;-59
2021/08/20 16:45:20;;;;;;;0.87;0.83;;;;;;;25.62;41.59;100232.19;10319603;28;20203;-58
2021/08/20 16:50:21;;;;;;;1.73;1.05;;;;;;;25.64;42.25;100235.53;10318284;28;20065;-61
2021/08/20 16:55:23;;;;;;;0.90;0.70;;;;;;;25.58;42.48;100243.53;10319014;28;20069;-60
2021/08/20 17:00:25;;;;;;;1.70;1.05;;;;;;;25.53;42.76;100234.38;10312585;28;20058;-60
2021/08/20 17:05:26;;;;;;;2.35;1.08;;;;;;;25.47;43.22;100235.25;10316474;28;20053;-60
2021/08/20 17:10:28;;;;;;;1.65;1.23;;;;;;;25.33;43.40;100232.63;10313299;28;22338;-62
2021/08/20 17:15:31;;;;;;;2.60;1.10;;;;;;;25.17;44.01;100249.47;10314563;28;20090;-60
2021/08/20 17:20:33;;;;;;;1.90;1.38;;;;;;;24.95;45.13;100249.84;10313658;28;20153;-60
2021/08/20 17:25:35;;;;;;;1.55;1.20;;;;;;;24.82;45.10;100249.91;10313610;28;20057;-60
2021/08/20 17:30:36;;;;;;;2.45;1.63;;;;;;;24.77;45.11;100252.44;10314698;28;20090;-60
2021/08/20 17:35:39;;;;;;;1.25;1.15;;;;;;;24.74;45.17;100263.75;10311240;28;20138;-62
2021/08/20 17:40:41;;;;;;;2.20;1.25;;;;;;;24.62;45.57;100267.19;10319170;28;20191;-60
2021/08/20 17:45:42;;;;;;;1.50;1.20;;;;;;;24.50;46.34;100268.84;10319743;28;20128;-60
2021/08/20 17:50:44;;;;;;;1.38;1.20;;;;;;;24.25;47.53;100283.16;10318935;28;20638;-60
2021/08/20 17:55:45;;;;;;;1.98;1.17;;;;;;;24.01;48.66;100281.94;10328188;28;20167;-59
2021/08/20 18:00:46;;;;;;;2.47;1.50;;;;;;;23.81;49.51;100281.94;10315015;28;20133;-62
2021/08/20 18:05:48;;;;;;;3.80;1.17;;;;;;;23.55;50.06;100280.06;10317071;28;20305;-59
2021/08/20 18:10:50;;;;;;;2.33;1.13;;;;;;;23.48;50.77;100286.31;10308476;28;20145;-60
2021/08/20 18:15:52;;;;;;;2.55;1.60;;;;;;;23.29;51.02;100287.97;10299530;28;20057;-61
2021/08/20 18:20:57;;;;;;;2.25;1.55;;;;;;;23.20;51.45;100289.22;10310906;28;20049;-62
2021/08/20 18:25:58;;;;;;;1.85;1.13;;;;;;;23.13;52.10;100285.63;10307767;28;20148;-61
2021/08/20 18:31:00;;;;;;;1.30;1.20;;;;;;;23.09;52.26;100303.38;10327138;28;20141;-61
2021/08/20 18:36:01;;;;;;;2.92;1.30;;;;;;;23.01;52.22;100303.53;10317532;28;20765;-62
2021/08/20 18:41:04;;;;;;;2.70;1.73;;;;;;;22.91;52.79;100299.34;10314500;28;20062;-62
2021/08/20 18:46:06;;;;;;;2.10;1.25;;;;;;;22.83;52.87;100306.81;10314847;28;20598;-62
2021/08/20 18:51:08;;;;;;;1.30;1.00;;;;;;;22.74;53.08;100314.28;10308996;28;20089;-58
2021/08/20 18:56:10;;;;;;;2.53;1.03;;;;;;;22.66;53.57;100312.59;10305669;28;20132;-59
2021/08/20 19:01:11;;;;;;;1.30;1.20;;;;;;;22.59;53.97;100322.56;10315827;28;20141;-61
2021/08/20 19:06:13;;;;;;;2.85;1.10;;;;;;;22.47;54.42;100335.03;10312914;28;20099;-64
2021/08/20 19:11:14;;;;;;;1.33;1.13;;;;;;;22.38;54.82;100342.47;10305778;28;20080;-59
2021/08/20 19:16:16;;;;;;;1.40;1.10;;;;;;;22.33;55.15;100342.25;10313135;28;20096;-61
2021/08/20 19:21:17;;;;;;;2.97;1.02;;;;;;;22.20;55.47;100341.09;10311068;28;20141;-60
2021/08/20 19:26:19;;;;;;;1.58;0.88;;;;;;;22.16;55.25;100350.66;10311213;28;20070;-59
2021/08/20 19:31:20;;;;;;;1.98;0.73;;;;;;;22.19;55.24;100352.97;10313250;28;20159;-61
2021/08/20 19:36:22;;;;;;;1.25;0.98;;;;;;;22.05;55.66;100348.47;10307562;28;20791;-58
2021/08/20 19:41:24;;;;;;;2.38;1.38;;;;;;;21.98;56.17;100347.56;10311038;28;20623;-61
2021/08/20 19:46:27;;;;;;;3.47;1.17;;;;;;;21.90;56.50;100351.25;10313491;28;20141;-58
2021/08/20 19:51:29;;;;;;;1.63;1.35;;;;;;;21.84;56.90;100360.19;10309742;28;20185;-62
2021/08/20 19:56:31;;;;;;;2.67;1.95;;;;;;;21.70;57.11;100361.94;10310278;28;20500;-57
2021/08/20 20:01:33;;;;;;;5.47;2.13;;;;;;;21.60;57.94;100366.81;10307956;28;20111;-58
2021/08/20 20:06:34;;;;;;;5.10;2.40;;;;;;;21.57;57.96;100364.50;10310493;28;20836;-60
2021/08/20 20:11:39;;;;;;;4.32;2.35;;;;;;;21.53;58.27;100373.03;10305720;28;20054;-58
2021/08/20 20:16:41;;;;;;;2.95;2.15;;;;;;;21.44;58.50;100363.31;10310842;28;20115;-60
2021/08/20 20:21:42;;;;;;;5.20;4.80;;;;;;;21.42;58.57;100370.78;10308795;28;20164;-60
2021/08/20 20:26:44;;;;;;;13.07;11.90;;;;;;;21.37;58.87;100375.94;10310894;28;20104;-60
2021/08/20 20:31:46;;;;;;;8.90;8.20;;;;;;;21.35;58.88;100367.19;10318617;28;20113;-59
2021/08/20 20:36:47;;;;;;;12.52;11.38;;;;;;;21.39;58.91;100373.03;10316717;28;20046;-59
2021/08/20 20:41:49;;;;;;;12.20;11.00;;;;;;;21.39;59.05;100375.75;10314979;28;20129;-58
2021/08/20 20:46:50;;;;;;;8.05;7.35;;;;;;;21.39;59.06;100376.56;10317488;28;20132;-59
2021/08/20 20:51:51;;;;;;;3.10;2.80;;;;;;;21.36;58.87;100379.66;10322288;28;20065;-58
2021/08/20 20:56:53;;;;;;;2.33;2.05;;;;;;;21.30;59.28;100380.44;10333992;28;20050;-60
2021/08/20 21:01:54;;;;;;;3.28;1.90;;;;;;;21.28;59.32;100390.63;10335152;28;20077;-61
2021/08/20 21:06:56;;;;;;;4.72;2.10;;;;;;;21.26;59.63;100393.53;10332407;28;20065;-60
2021/08/20 21:11:57;;;;;;;2.95;1.80;;;;;;;21.24;59.29;100400.16;10331113;28;20066;-60
2021/08/20 21:16:59;;;;;;;2.20;1.30;;;;;;;21.25;59.13;100391.84;10334436;28;20119;-61
2021/08/20 21:22:01;;;;;;;2.58;1.30;;;;;;;21.24;59.27;100394.72;10342706;28;20162;-61
2021/08/20 21:27:02;;;;;;;2.03;1.23;;;;;;;21.18;59.34;100394.47;10342291;28;20054;-60
2021/08/20 21:32:07;;;;;;;1.90;1.30;;;;;;;21.13;59.54;100396.91;10339939;28;20112;-58
2021/08/20 21:37:09;;;;;;;1.58;0.98;;;;;;;21.07;59.63;100383.28;10337303;28;20096;-60
2021/08/20 21:42:11;;;;;;;3.47;1.73;;;;;;;21.00;59.79;100391.31;10337894;28;20045;-60
2021/08/20 21:47:12;;;;;;;2.80;1.45;;;;;;;20.94;59.89;100394.78;10339223;28;20054;-60
2021/08/20 21:52:14;;;;;;;2.95;1.92;;;;;;;20.88;60.05;100396.34;10338263;28;20407;-60
2021/08/20 21:57:15;;;;;;;2.60;1.40;;;;;;;20.83;60.25;100394.22;10339458;28;20143;-60
2021/08/20 22:02:17;;;;;;;1.55;1.45;;;;;;;20.72;60.56;100392.00;10337837;28;20061;-61
2021/08/20 22:07:18;;;;;;;4.30;1.40;;;;;;;20.65;60.78;100396.44;10333478;28;20074;-57
2021/08/20 22:12:20;;;;;;;3.17;2.00;;;;;;;20.65;61.03;100405.41;10334586;28;20141;-61
2021/08/20 22:17:21;;;;;;;1.83;1.40;;;;;;;20.60;61.25;100404.28;10336378;28;20081;-58
2021/08/20 22:22:22;;;;;;;2.65;1.65;;;;;;;20.53;61.58;100403.34;10333453;28;20461;-60
2021/08/20 22:27:24;;;;;;;1.92;1.67;;;;;;;20.45;61.82;100388.88;10336167;28;20062;-59
2021/08/20 22:32:25;;;;;;;2.58;1.40;;;;;;;20.44;62.03;100392.59;10334756;28;20451;-63
2021/08/20 22:37:27;;;;;;;2.83;1.70;;;;;;;20.37;61.91;100386.28;10338042;28;20081;-59
2021/08/20 22:42:33;;;;;;;2.47;1.40;;;;;;;20.34;62.06;100386.63;10338318;28;20104;-59
2021/08/20 22:47:35;;;;;;;2.65;1.50;;;;;;;20.30;62.10;100385.31;10337861;28;20050;-60
2021/08/20 22:52:36;;;;;;;3.38;1.25;;;;;;;20.26;62.21;100384.00;10334047;28;20141;-60
2021/08/20 22:57:40;;;;;;;1.88;1.30;;;;;;;20.22;62.38;100385.38;10334902;28;20100;-59
2021/08/20 23:02:43;;;;;;;1.45;1.25;;;;;;;20.16;62.73;100396.94;10340555;28;20049;-60
2021/08/20 23:07:44;;;;;;;2.00;1.60;;;;;;;20.03;62.71;100381.34;10340348;28;20077;-61
2021/08/20 23:12:46;;;;;;;3.03;2.50;;;;;;;19.95;62.96;100387.66;10331042;28;20053;-59